sim
Sign-in with your pilot id or email,
or register
Callsign
Passwort

Schedule Details

Flight Number: RYR8582 (1)
Departure: London Stansted Airport (EGSS) at 16:30
Arrival: Thessaloniki International Airport (LGTS) at 19:40
Route: Ryanair Passenger Schedule. Enter filed route here before submitting Pirep.

Weather Information
Getting current METAR information for EGSS 252150Z AUTO 16007KT 9999 NCD 08/04 Q1005
Getting current METAR information for LGTS 252150Z 00000KT CAVOK 15/12 Q1020 NOSIG

Schedule Frequency

Route Map